Time;durP1;ratioP1;P1;durP2;ratioP2;P2;SDS_P1;SDS_P2;PMS_P1;PMS_P2;Temp;Humidity;BMP_temperature;BMP_pressure;BME280_temperature;BME280_humidity;BME280_pressure;Samples;Min_cycle;Max_cycle;Signal;HPM_P1;HPM_P2
2021/07/06 00:01:48;;;;;;;3.5;2.3;;;;;;;;;;;;;
2021/07/06 00:04:13;;;;;;;5.1;2.3;;;;;;;;;;;;;
2021/07/06 00:06:38;;;;;;;4.1;2.5;;;;;;;;;;;;;
2021/07/06 00:09:03;;;;;;;5.7;2.5;;;;;;;;;;;;;
2021/07/06 00:11:28;;;;;;;6.6;2.5;;;;;;;;;;;;;
2021/07/06 00:13:53;;;;;;;4.7;2.5;;;;;;;;;;;;;
2021/07/06 00:16:18;;;;;;;3.6;2.4;;;;;;;;;;;;;
2021/07/06 00:18:43;;;;;;;5.8;2.7;;;;;;;;;;;;;
2021/07/06 00:21:09;;;;;;;6.4;2.4;;;;;;;;;;;;;
2021/07/06 00:23:34;;;;;;;6.1;2.5;;;;;;;;;;;;;
2021/07/06 00:25:59;;;;;;;6.9;2.4;;;;;;;;;;;;;
2021/07/06 00:28:26;;;;;;;8.2;2.3;;;;;;;;;;;;;
2021/07/06 00:30:51;;;;;;;4.8;2.3;;;;;;;;;;;;;
2021/07/06 00:33:17;;;;;;;6.3;2.2;;;;;;;;;;;;;
2021/07/06 00:35:42;;;;;;;7.3;2.2;;;;;;;;;;;;;
2021/07/06 00:38:08;;;;;;;4.9;2;;;;;;;;;;;;;
2021/07/06 00:40:33;;;;;;;3;2;;;;;;;;;;;;;
2021/07/06 00:43:00;;;;;;;4.3;1.8;;;;;;;;;;;;;
2021/07/06 00:45:25;;;;;;;2.5;1.8;;;;;;;;;;;;;
2021/07/06 00:47:50;;;;;;;3.3;1.9;;;;;;;;;;;;;
2021/07/06 00:50:15;;;;;;;3.8;2;;;;;;;;;;;;;
2021/07/06 00:52:41;;;;;;;2.7;2;;;;;;;;;;;;;
2021/07/06 00:55:07;;;;;;;3;2.1;;;;;;;;;;;;;
2021/07/06 00:57:32;;;;;;;5.1;2.1;;;;;;;;;;;;;
2021/07/06 00:59:58;;;;;;;3.6;2.3;;;;;;;;;;;;;
2021/07/06 01:02:23;;;;;;;6.7;2.3;;;;;;;;;;;;;
2021/07/06 01:04:48;;;;;;;4;2.1;;;;;;;;;;;;;
2021/07/06 01:07:15;;;;;;;6.3;2.3;;;;;;;;;;;;;
2021/07/06 01:09:39;;;;;;;4.4;2;;;;;;;;;;;;;
2021/07/06 01:12:04;;;;;;;4.3;1.9;;;;;;;;;;;;;
2021/07/06 01:14:29;;;;;;;6.9;2.4;;;;;;;;;;;;;
2021/07/06 01:16:54;;;;;;;4.3;2.1;;;;;;;;;;;;;
2021/07/06 01:19:21;;;;;;;3.3;1.9;;;;;;;;;;;;;
2021/07/06 01:21:46;;;;;;;3.8;2;;;;;;;;;;;;;
2021/07/06 01:24:11;;;;;;;2.8;2;;;;;;;;;;;;;
2021/07/06 01:26:36;;;;;;;4.6;2.2;;;;;;;;;;;;;
2021/07/06 01:29:03;;;;;;;3.7;1.9;;;;;;;;;;;;;
2021/07/06 01:31:28;;;;;;;3.9;1.9;;;;;;;;;;;;;
2021/07/06 01:33:54;;;;;;;4.4;2.3;;;;;;;;;;;;;
2021/07/06 01:36:19;;;;;;;3.1;2.2;;;;;;;;;;;;;
2021/07/06 01:38:46;;;;;;;4.4;2.1;;;;;;;;;;;;;
2021/07/06 01:41:11;;;;;;;3.7;2.5;;;;;;;;;;;;;
2021/07/06 01:43:36;;;;;;;4.2;2.1;;;;;;;;;;;;;
2021/07/06 01:46:02;;;;;;;4.6;2.1;;;;;;;;;;;;;
2021/07/06 01:48:27;;;;;;;2.3;1.9;;;;;;;;;;;;;
2021/07/06 01:50:52;;;;;;;6.1;2.5;;;;;;;;;;;;;
2021/07/06 01:53:18;;;;;;;2.3;2;;;;;;;;;;;;;
2021/07/06 01:55:43;;;;;;;2;1.8;;;;;;;;;;;;;
2021/07/06 01:58:09;;;;;;;2.3;2;;;;;;;;;;;;;
2021/07/06 02:00:35;;;;;;;5.1;2.5;;;;;;;;;;;;;
2021/07/06 02:03:02;;;;;;;4.6;2.5;;;;;;;;;;;;;
2021/07/06 02:05:27;;;;;;;4.2;2.3;;;;;;;;;;;;;
2021/07/06 02:07:52;;;;;;;2.4;1.9;;;;;;;;;;;;;
2021/07/06 02:10:17;;;;;;;3.6;2;;;;;;;;;;;;;
2021/07/06 02:12:44;;;;;;;2.8;1.8;;;;;;;;;;;;;
2021/07/06 02:15:09;;;;;;;4.7;2.2;;;;;;;;;;;;;
2021/07/06 02:17:34;;;;;;;3.1;2;;;;;;;;;;;;;
2021/07/06 02:19:59;;;;;;;3.9;2.1;;;;;;;;;;;;;
2021/07/06 02:22:25;;;;;;;3.6;2;;;;;;;;;;;;;
2021/07/06 02:24:50;;;;;;;5.2;2.2;;;;;;;;;;;;;
2021/07/06 02:27:15;;;;;;;2.3;2.1;;;;;;;;;;;;;
2021/07/06 02:29:41;;;;;;;2.1;1.7;;;;;;;;;;;;;
2021/07/06 02:32:06;;;;;;;2.7;2;;;;;;;;;;;;;
2021/07/06 02:34:34;;;;;;;3.7;2;;;;;;;;;;;;;
2021/07/06 02:36:59;;;;;;;6.1;1.6;;;;;;;;;;;;;
2021/07/06 02:39:24;;;;;;;3;1.6;;;;;;;;;;;;;
2021/07/06 02:41:50;;;;;;;2.3;1.7;;;;;;;;;;;;;
2021/07/06 02:44:15;;;;;;;1.8;1.6;;;;;;;;;;;;;
2021/07/06 02:46:40;;;;;;;1.6;1.5;;;;;;;;;;;;;
2021/07/06 02:49:06;;;;;;;3.1;1.7;;;;;;;;;;;;;
2021/07/06 02:51:31;;;;;;;3.1;1.9;;;;;;;;;;;;;
2021/07/06 02:53:56;;;;;;;2.7;1.7;;;;;;;;;;;;;
2021/07/06 02:56:21;;;;;;;2.5;1.8;;;;;;;;;;;;;
2021/07/06 02:58:46;;;;;;;2.9;1.6;;;;;;;;;;;;;
2021/07/06 03:01:11;;;;;;;3.9;2.3;;;;;;;;;;;;;
2021/07/06 03:03:37;;;;;;;2.4;1.9;;;;;;;;;;;;;
2021/07/06 03:06:02;;;;;;;4.9;2;;;;;;;;;;;;;
2021/07/06 03:08:45;;;;;;;1.8;1.7;;;;;;;;;;;;;
2021/07/06 03:11:10;;;;;;;2.3;2;;;;;;;;;;;;;
2021/07/06 03:13:35;;;;;;;3.5;2.1;;;;;;;;;;;;;
2021/07/06 03:16:02;;;;;;;3.1;2;;;;;;;;;;;;;
2021/07/06 03:18:27;;;;;;;2.2;1.7;;;;;;;;;;;;;
2021/07/06 03:20:53;;;;;;;4.4;1.9;;;;;;;;;;;;;
2021/07/06 03:23:18;;;;;;;3.2;1.9;;;;;;;;;;;;;
2021/07/06 03:25:44;;;;;;;7.1;2.4;;;;;;;;;;;;;
2021/07/06 03:28:08;;;;;;;3.6;2.4;;;;;;;;;;;;;
2021/07/06 03:30:33;;;;;;;4.7;2.3;;;;;;;;;;;;;
2021/07/06 03:32:59;;;;;;;3.6;2.5;;;;;;;;;;;;;
2021/07/06 03:35:24;;;;;;;12;6.9;;;;;;;;;;;;;
2021/07/06 03:37:49;;;;;;;11;6.2;;;;;;;;;;;;;
2021/07/06 03:40:15;;;;;;;8.5;5.7;;;;;;;;;;;;;
2021/07/06 03:42:40;;;;;;;8.1;4.8;;;;;;;;;;;;;
2021/07/06 03:45:05;;;;;;;5.4;3.6;;;;;;;;;;;;;
2021/07/06 03:47:31;;;;;;;5.9;3.9;;;;;;;;;;;;;
2021/07/06 03:49:56;;;;;;;5;2.9;;;;;;;;;;;;;
2021/07/06 03:52:22;;;;;;;8.5;3;;;;;;;;;;;;;
2021/07/06 03:54:47;;;;;;;4.3;2.4;;;;;;;;;;;;;
2021/07/06 03:57:31;;;;;;;6.5;2.8;;;;;;;;;;;;;
2021/07/06 03:59:48;;;;;;;4.8;2.5;;;;;;;;;;;;;
2021/07/06 04:02:36;;;;;;;7.9;2.3;;;;;;;13.43;95.82617;934.7772;;;;
2021/07/06 04:05:07;;;;;;;4.7;2.2;;;;;;;13.58;94.52637;934.7632;;;;
2021/07/06 04:07:32;;;;;;;4.1;2.2;;;;;;;13.68;93.9707;934.6947;;;;
2021/07/06 04:09:59;;;;;;;6.5;2.3;;;;;;;13.8;93.17969;934.7137;;;;
2021/07/06 04:12:24;;;;;;;3.7;2.2;;;;;;;13.74;93.39746;934.6517;;;;
2021/07/06 04:14:52;;;;;;;4.4;2;;;;;;;13.68;93.30566;934.7251;;;;
2021/07/06 04:17:21;;;;;;;3.7;2.6;;;;;;;13.55;94.28809;934.6786;;;;
2021/07/06 04:19:46;;;;;;;5.4;2.6;;;;;;;13.47;94.49902;934.6345;;;;
2021/07/06 04:22:16;;;;;;;4.6;2.3;;;;;;;13.47;94.57129;934.6608;;;;
2021/07/06 04:24:46;;;;;;;11.3;3.1;;;;;;;13.67;94.06055;934.5803;;;;
2021/07/06 04:27:11;;;;;;;10.6;2.8;;;;;;;13.7;93.54883;934.6594;;;;
2021/07/06 04:29:42;;;;;;;15.4;4.6;;;;;;;13.69;94.10156;934.7218;;;;
2021/07/06 04:32:15;;;;;;;6.3;2.9;;;;;;;13.56;94.86719;934.7458;;;;
2021/07/06 04:34:39;;;;;;;5.8;2.4;;;;;;;13.6;95.46191;934.6542;;;;
2021/07/06 04:37:04;;;;;;;5.3;2.5;;;;;;;13.69;94.91797;934.6819;;;;
2021/07/06 04:39:33;;;;;;;11.2;2.9;;;;;;;13.83;94.39746;934.6824;;;;
2021/07/06 04:42:03;;;;;;;11.3;3.1;;;;;;;13.93;93.13965;934.6608;;;;
2021/07/06 04:44:40;;;;;;;5.5;2.3;;;;;;;13.83;93.16406;934.6752;;;;
2021/07/06 04:47:08;;;;;;;7.2;2.6;;;;;;;13.69;93.79102;934.6434;;;;
2021/07/06 04:49:33;;;;;;;6;2.4;;;;;;;13.77;93.4502;934.5667;;;;
2021/07/06 04:52:03;;;;;;;8.9;2.6;;;;;;;13.85;93.26172;934.4886;;;;
2021/07/06 04:54:27;;;;;;;4.7;2.1;;;;;;;14;93.8916;934.4976;;;;
2021/07/06 04:56:52;;;;;;;12.4;3.6;;;;;;;14.18;92.09961;934.5601;;;;
2021/07/06 04:59:17;;;;;;;10.3;3;;;;;;;14.23;91.82129;934.4894;;;;
2021/07/06 05:01:43;;;;;;;9.9;2.7;;;;;;;14.17;92.13184;934.4753;;;;
2021/07/06 05:04:08;;;;;;;8.1;2.4;;;;;;;14.39;91.19727;934.4877;;;;
2021/07/06 05:06:35;;;;;;;3.3;1.9;;;;;;;14.44;91.33496;934.5204;;;;
2021/07/06 05:09:00;;;;;;;4.7;2.2;;;;;;;14.98;89.84668;934.5977;;;;
2021/07/06 05:12:16;;;;;;;6;2.1;;;;;;;16.69;83.6084;934.6344;;;;
2021/07/06 05:14:41;;;;;;;4.6;2;;;;;;;18.25;74.41211;934.4981;;;;
2021/07/06 05:17:09;;;;;;;5.4;1.7;;;;;;;19.9;68.60059;934.4964;;;;
2021/07/06 05:19:37;;;;;;;3.3;1.5;;;;;;;20.74;64.20898;934.4981;;;;
2021/07/06 05:24:29;;;;;;;2.9;1.7;;;;;;;21;63.69629;934.5353;;;;
2021/07/06 05:26:54;;;;;;;5;2;;;;;;;21.44;61.31348;934.4697;;;;
2021/07/06 05:29:20;;;;;;;2.2;1.6;;;;;;;21.55;61.17676;934.4378;;;;
2021/07/06 05:31:46;;;;;;;5;1.5;;;;;;;22.76;58.41992;934.4345;;;;
2021/07/06 05:34:11;;;;;;;14.5;2.2;;;;;;;23.61;55.7793;934.3912;;;;
2021/07/06 05:36:39;;;;;;;5.5;1.8;;;;;;;23.78;55.01172;934.4077;;;;
2021/07/06 05:39:06;;;;;;;3.1;1.5;;;;;;;23.56;55.38477;934.3761;;;;
2021/07/06 05:41:32;;;;;;;3.2;1.2;;;;;;;22.38;58.22949;934.2855;;;;
2021/07/06 05:43:58;;;;;;;1;0.9;;;;;;;24.42;53.4873;934.1847;;;;
2021/07/06 05:46:24;;;;;;;2.3;0.9;;;;;;;23.94;52.19434;934.2475;;;;
2021/07/06 05:48:49;;;;;;;1.2;0.9;;;;;;;23.49;52.91797;934.2787;;;;
2021/07/06 05:51:16;;;;;;;1.5;1.2;;;;;;;22.93;55.40039;934.2075;;;;
2021/07/06 05:53:43;;;;;;;6.5;1.8;;;;;;;25.76;48.03516;934.1866;;;;
2021/07/06 05:56:08;;;;;;;3.4;1.7;;;;;;;26.17;46.16113;934.2184;;;;
2021/07/06 05:58:33;;;;;;;3.1;1.2;;;;;;;25.35;48.69824;934.2391;;;;
2021/07/06 06:00:59;;;;;;;2.4;1.4;;;;;;;26.41;47.18066;934.2642;;;;
2021/07/06 06:03:24;;;;;;;3.2;1.4;;;;;;;25.34;49.92578;934.1962;;;;
2021/07/06 06:05:52;;;;;;;3.6;1.6;;;;;;;24.87;50.5459;934.1316;;;;
2021/07/06 06:08:16;;;;;;;9.2;2.3;;;;;;;24.74;51.45117;934.1291;;;;
2021/07/06 06:10:42;;;;;;;7.8;1.7;;;;;;;25.58;49.52832;933.9995;;;;
2021/07/06 06:13:07;;;;;;;3.8;1.1;;;;;;;26.28;47.93555;933.9911;;;;
2021/07/06 06:15:38;;;;;;;3.9;1.3;;;;;;;26.44;48.4043;934.0171;;;;
2021/07/06 06:18:05;;;;;;;6;1.2;;;;;;;27.15;46.97461;933.9584;;;;
2021/07/06 06:20:30;;;;;;;2.7;1;;;;;;;27.28;46.53809;933.8948;;;;
2021/07/06 06:22:57;;;;;;;2.3;1;;;;;;;26.3;46.47168;933.8723;;;;
2021/07/06 06:25:22;;;;;;;4.6;1.3;;;;;;;26.46;48.84277;933.8677;;;;
2021/07/06 06:27:49;;;;;;;0.9;0.7;;;;;;;27.93;43.43359;933.8948;;;;
2021/07/06 06:30:14;;;;;;;2.2;1;;;;;;;27.62;43.42773;933.8622;;;;
2021/07/06 06:32:41;;;;;;;3.7;0.8;;;;;;;26.85;44.37207;933.7866;;;;
2021/07/06 06:35:06;;;;;;;1.1;0.9;;;;;;;27.28;43.94043;933.697;;;;
2021/07/06 06:37:32;;;;;;;1.6;1;;;;;;;27.7;43.76758;933.659;;;;
2021/07/06 06:39:57;;;;;;;3.1;1;;;;;;;29.58;40.32617;933.657;;;;
2021/07/06 06:42:24;;;;;;;2.9;1.5;;;;;;;28.62;41.35938;933.6263;;;;
2021/07/06 06:44:48;;;;;;;1.5;1;;;;;;;29.39;40.17871;933.5923;;;;
2021/07/06 06:47:15;;;;;;;1.5;0.8;;;;;;;30.05;38.81738;933.5203;;;;
2021/07/06 06:49:39;;;;;;;1;0.6;;;;;;;30.24;38.96484;933.4694;;;;
2021/07/06 06:52:06;;;;;;;2.2;1;;;;;;;31.65;36.21191;933.3715;;;;
2021/07/06 06:54:33;;;;;;;1.4;0.7;;;;;;;32.1;34.58301;933.3569;;;;
2021/07/06 06:57:00;;;;;;;3.6;1;;;;;;;33.17;33.14941;933.3329;;;;
2021/07/06 06:59:24;;;;;;;3.6;0.9;;;;;;;32.99;33.17285;933.2996;;;;
2021/07/06 07:02:16;;;;;;;0.6;0.6;;;;;;;32.74;33.51465;933.2328;;;;
2021/07/06 07:04:18;;;;;;;0.6;0.6;;;;;;;32.04;33.77441;933.2072;;;;
2021/07/06 07:06:43;;;;;;;2;0.8;;;;;;;32.99;33.52148;933.1599;;;;
2021/07/06 07:09:09;;;;;;;6.2;1;;;;;;;33.9;32.19238;933.1372;;;;
2021/07/06 07:11:34;;;;;;;1.8;0.7;;;;;;;34;31.38086;933.2063;;;;
2021/07/06 07:14:02;;;;;;;7.4;1.6;;;;;;;34.52;31.53711;933.1831;;;;
2021/07/06 07:16:37;;;;;;;2;0.8;;;;;;;34.39;31.79297;933.1301;;;;
2021/07/06 07:19:02;;;;;;;1.8;0.8;;;;;;;35.27;28.69141;933.0449;;;;
2021/07/06 07:21:31;;;;;;;1.4;0.8;;;;;;;33.88;29.74707;933.0311;;;;
2021/07/06 07:23:56;;;;;;;1.7;0.7;;;;;;;32.95;32.2334;932.9875;;;;
2021/07/06 07:26:21;;;;;;;1;0.9;;;;;;;33.96;30.04199;932.9064;;;;
2021/07/06 07:28:49;;;;;;;0.5;0.5;;;;;;;33.43;30.2832;932.8508;;;;
2021/07/06 07:33:44;;;;;;;1;0.9;;;;;;;35.82;29.31836;932.8876;;;;
2021/07/06 07:39:38;;;;;;;0.8;0.8;;;;;;;34.94;28.49023;932.7397;;;;
2021/07/06 07:41:57;;;;;;;0.6;0.6;;;;;;;33.17;29.50879;932.7057;;;;
2021/07/06 07:44:25;;;;;;;0.6;0.6;;;;;;;34.82;26.13086;932.6669;;;;
2021/07/06 07:46:50;;;;;;;1.5;0.8;;;;;;;36.14;25.33594;932.702;;;;
2021/07/06 07:49:16;;;;;;;0.6;0.6;;;;;;;36.51;25.33203;932.67;;;;
2021/07/06 07:51:41;;;;;;;1;0.7;;;;;;;37.18;25.59961;932.6155;;;;
2021/07/06 07:54:07;;;;;;;0.8;0.6;;;;;;;38.43;25.28027;932.5927;;;;
2021/07/06 07:56:32;;;;;;;1.8;0.9;;;;;;;38.24;22.53613;932.5956;;;;
2021/07/06 07:59:00;;;;;;;1.2;0.7;;;;;;;36.9;23.74219;932.6552;;;;
2021/07/06 08:01:25;;;;;;;4.1;1;;;;;;;36.4;24.8418;932.5887;;;;
2021/07/06 08:03:52;;;;;;;1.1;0.7;;;;;;;38.29;26.76758;932.5859;;;;
2021/07/06 08:06:17;;;;;;;1.8;0.6;;;;;;;38.3;22.42969;932.5344;;;;
2021/07/06 08:08:42;;;;;;;3;0.9;;;;;;;37.68;24.51172;932.5011;;;;
2021/07/06 08:11:07;;;;;;;0.6;0.6;;;;;;;37;23.23926;932.4509;;;;
2021/07/06 08:13:35;;;;;;;0.8;0.8;;;;;;;36.79;24.92383;932.392;;;;
2021/07/06 08:16:06;;;;;;;0.6;0.6;;;;;;;36.65;24.22559;932.3775;;;;
2021/07/06 08:18:31;;;;;;;0.6;0.6;;;;;;;35.92;23.82422;932.4008;;;;
2021/07/06 08:20:59;;;;;;;1.9;0.6;;;;;;;36.57;24.29395;932.3574;;;;
2021/07/06 08:23:24;;;;;;;1.4;0.7;;;;;;;35.57;25.48535;932.3234;;;;
2021/07/06 08:25:52;;;;;;;3.9;0.6;;;;;;;34.12;26.21094;932.228;;;;
2021/07/06 08:28:19;;;;;;;1.3;0.7;;;;;;;32.99;30.53027;932.2347;;;;
2021/07/06 08:30:47;;;;;;;0.6;0.6;;;;;;;32.5;31.24121;932.279;;;;
2021/07/06 08:33:16;;;;;;;1.8;0.9;;;;;;;33.6;30.52246;932.2271;;;;
2021/07/06 08:35:41;;;;;;;1.6;0.6;;;;;;;34.08;30.21777;932.1958;;;;
2021/07/06 08:38:08;;;;;;;1.7;0.8;;;;;;;34.65;28.49609;932.1564;;;;
2021/07/06 08:40:34;;;;;;;2.1;0.9;;;;;;;34.67;28.50977;932.1739;;;;
2021/07/06 08:42:59;;;;;;;1.1;0.8;;;;;;;35.04;27.32617;932.2047;;;;
2021/07/06 08:45:25;;;;;;;1.3;0.7;;;;;;;35.12;26.95703;932.1607;;;;
2021/07/06 08:47:52;;;;;;;0.7;0.6;;;;;;;35.43;26.69727;932.1627;;;;
2021/07/06 08:50:17;;;;;;;0.7;0.5;;;;;;;33.59;28.44141;932.0966;;;;
2021/07/06 08:52:44;;;;;;;0.7;0.6;;;;;;;32.66;30.33984;932.0517;;;;
2021/07/06 08:55:08;;;;;;;1.4;0.6;;;;;;;32.77;30.17969;932.0469;;;;
2021/07/06 08:57:35;;;;;;;1.3;0.5;;;;;;;33.27;28.50586;932.0609;;;;
2021/07/06 09:00:00;;;;;;;0.6;0.6;;;;;;;33.25;29.74316;932.0903;;;;
2021/07/06 09:02:28;;;;;;;1.2;0.6;;;;;;;33.93;28.07715;932.1434;;;;
2021/07/06 09:04:56;;;;;;;3.3;0.8;;;;;;;34.08;28.32813;932.0719;;;;
2021/07/06 09:07:21;;;;;;;5.3;1.2;;;;;;;34.47;28.29199;932.0803;;;;
2021/07/06 09:09:47;;;;;;;6.4;1.1;;;;;;;35.55;26.25684;932.1426;;;;
2021/07/06 09:12:12;;;;;;;1.2;0.8;;;;;;;35.73;25.86914;932.0967;;;;
2021/07/06 09:14:37;;;;;;;1.1;0.9;;;;;;;35.54;24.09473;932.1292;;;;
2021/07/06 09:17:04;;;;;;;0.9;0.9;;;;;;;36.99;23.5293;932.0004;;;;
2021/07/06 09:19:33;;;;;;;1.5;0.5;;;;;;;36.52;23.31055;931.9991;;;;
2021/07/06 09:22:02;;;;;;;2.8;1.1;;;;;;;35.98;23.42871;932.0067;;;;
2021/07/06 09:24:27;;;;;;;1.5;0.6;;;;;;;35.39;25.29492;932.0087;;;;
2021/07/06 09:26:57;;;;;;;3.2;0.8;;;;;;;35.94;27.64551;932.0262;;;;
2021/07/06 09:29:25;;;;;;;3.9;1.1;;;;;;;36.41;25.375;931.976;;;;
2021/07/06 09:31:47;;;;;;;0.6;0.5;;;;;;;36.87;25.62988;931.9001;;;;
2021/07/06 09:34:12;;;;;;;2.8;0.8;;;;;;;38.02;23.61816;931.8453;;;;
2021/07/06 09:36:40;;;;;;;0.7;0.7;;;;;;;35.82;23.61426;931.8666;;;;
2021/07/06 09:39:05;;;;;;;0.6;0.6;;;;;;;35.59;23.80762;931.8862;;;;
2021/07/06 09:41:34;;;;;;;0.6;0.6;;;;;;;35.3;24.36035;931.8314;;;;
2021/07/06 09:43:59;;;;;;;1.3;0.5;;;;;;;35.99;26.36719;931.8106;;;;
2021/07/06 09:46:28;;;;;;;0.9;0.7;;;;;;;36.23;25.41309;931.7823;;;;
2021/07/06 09:48:53;;;;;;;4.2;1.3;;;;;;;36.5;23.50391;931.7573;;;;
2021/07/06 09:51:24;;;;;;;3.8;1.1;;;;;;;36.09;24.91016;931.8095;;;;
2021/07/06 09:53:48;;;;;;;1.1;0.7;;;;;;;35.45;26.81934;931.717;;;;
2021/07/06 09:56:13;;;;;;;0.6;0.6;;;;;;;34.7;24.62891;931.6983;;;;
2021/07/06 09:58:43;;;;;;;0.7;0.5;;;;;;;35.17;27.80469;931.7159;;;;
2021/07/06 10:01:24;;;;;;;2;0.6;;;;;;;35.85;25.83984;931.6829;;;;
2021/07/06 10:07:14;;;;;;;0.6;0.6;;;;;;;33.81;24.83398;931.5433;;;;
2021/07/06 10:09:39;;;;;;;1;0.5;;;;;;;33.27;25.39355;931.5139;;;;
2021/07/06 10:12:04;;;;;;;1.1;0.6;;;;;;;33.21;26.61621;931.4813;;;;
2021/07/06 10:14:30;;;;;;;0.9;0.6;;;;;;;33.13;29.68652;931.4681;;;;
2021/07/06 10:16:58;;;;;;;1.2;0.7;;;;;;;33.35;30.29004;931.4189;;;;
2021/07/06 10:19:30;;;;;;;0.5;0.5;;;;;;;33.24;26.17285;931.3232;;;;
2021/07/06 10:21:59;;;;;;;0.7;0.5;;;;;;;32.94;27.81348;931.3466;;;;
2021/07/06 10:24:28;;;;;;;0.5;0.5;;;;;;;32.93;25.97559;931.242;;;;
2021/07/06 10:26:53;;;;;;;0.5;0.5;;;;;;;32.66;28.8877;931.2388;;;;
2021/07/06 10:29:18;;;;;;;0.5;0.5;;;;;;;32.82;25.82422;931.2516;;;;
2021/07/06 10:31:43;;;;;;;0.6;0.6;;;;;;;32.79;28.04395;931.2441;;;;
2021/07/06 10:34:08;;;;;;;0.5;0.5;;;;;;;32.63;27.67383;931.3142;;;;
2021/07/06 10:36:33;;;;;;;0.5;0.5;;;;;;;32.97;28.43945;931.2834;;;;
2021/07/06 10:39:07;;;;;;;1.3;0.7;;;;;;;33.06;26.66699;931.231;;;;
2021/07/06 10:41:33;;;;;;;0.5;0.5;;;;;;;33.1;27.89453;931.1639;;;;
2021/07/06 10:43:58;;;;;;;1;0.5;;;;;;;33.26;26.77539;931.1644;;;;
2021/07/06 10:46:29;;;;;;;2.1;0.7;;;;;;;33.29;27.24512;931.1633;;;;
2021/07/06 10:48:48;;;;;;;0.8;0.6;;;;;;;33.13;25.12207;931.0733;;;;
2021/07/06 10:51:13;;;;;;;1.1;0.6;;;;;;;33.16;26.15625;931.0483;;;;
2021/07/06 10:53:38;;;;;;;1.6;0.6;;;;;;;33.35;25.55469;931.0314;;;;
2021/07/06 10:56:08;;;;;;;0.7;0.7;;;;;;;33.12;29.68555;931.0856;;;;
2021/07/06 10:58:32;;;;;;;1;0.6;;;;;;;33.43;28.31152;931.0499;;;;
2021/07/06 11:00:58;;;;;;;0.8;0.6;;;;;;;33.52;27.04199;930.9608;;;;
2021/07/06 11:03:24;;;;;;;0.5;0.5;;;;;;;32.96;25.92871;930.9487;;;;
2021/07/06 11:05:48;;;;;;;1.6;0.6;;;;;;;33.05;27.1582;930.9336;;;;
2021/07/06 11:08:14;;;;;;;1.1;0.6;;;;;;;33.2;24.6084;930.9109;;;;
2021/07/06 11:10:42;;;;;;;0.6;0.6;;;;;;;32.8;25.65527;930.8945;;;;
2021/07/06 11:13:06;;;;;;;1.5;0.6;;;;;;;32.49;27.98926;930.8887;;;;
2021/07/06 11:15:38;;;;;;;0.4;0.4;;;;;;;32.14;28.29102;930.847;;;;
2021/07/06 11:18:05;;;;;;;0.5;0.5;;;;;;;32.25;26.1875;930.8008;;;;
2021/07/06 11:20:38;;;;;;;0.4;0.4;;;;;;;32.63;24.50586;930.7767;;;;
2021/07/06 11:23:07;;;;;;;0.7;0.5;;;;;;;32.91;21.81934;930.7935;;;;
2021/07/06 11:25:34;;;;;;;1;0.5;;;;;;;33.04;21.54883;930.7466;;;;
2021/07/06 11:28:01;;;;;;;1.1;0.5;;;;;;;33.09;23.61816;930.7584;;;;
2021/07/06 11:30:33;;;;;;;0.6;0.6;;;;;;;33.01;25.31836;930.7544;;;;
2021/07/06 11:33:01;;;;;;;0.5;0.4;;;;;;;33.05;25.30859;930.7917;;;;
2021/07/06 11:35:26;;;;;;;0.4;0.4;;;;;;;32.63;32.71387;930.7849;;;;
2021/07/06 11:37:55;;;;;;;0.9;0.9;;;;;;;32.71;34.26855;930.7697;;;;
2021/07/06 11:40:23;;;;;;;0.8;0.7;;;;;;;32.84;34.68652;930.7108;;;;
2021/07/06 11:42:48;;;;;;;0.4;0.4;;;;;;;33;34.21875;930.7609;;;;
2021/07/06 11:45:15;;;;;;;1.4;0.6;;;;;;;33.34;32.15234;930.7098;;;;
2021/07/06 11:47:40;;;;;;;1.1;0.7;;;;;;;33.38;33.56152;930.7502;;;;
2021/07/06 11:50:09;;;;;;;1;0.6;;;;;;;33.43;35.39258;930.7301;;;;
2021/07/06 11:52:37;;;;;;;1.1;0.8;;;;;;;33.2;34.42578;930.7195;;;;
2021/07/06 11:55:02;;;;;;;0.5;0.5;;;;;;;32.85;34.49512;930.6855;;;;
2021/07/06 11:57:29;;;;;;;1.7;0.8;;;;;;;32.9;34.43945;930.6567;;;;
2021/07/06 11:59:55;;;;;;;1.6;0.8;;;;;;;33.11;33.60156;930.6696;;;;
2021/07/06 12:02:20;;;;;;;0.6;0.6;;;;;;;33.13;37.16016;930.7383;;;;
2021/07/06 12:04:46;;;;;;;1.4;0.8;;;;;;;32.59;39.26367;930.7341;;;;
2021/07/06 12:07:11;;;;;;;1.3;0.7;;;;;;;32.49;36.45996;930.8597;;;;
2021/07/06 12:09:39;;;;;;;0.7;0.7;;;;;;;32.23;36.8584;930.7759;;;;
2021/07/06 12:12:04;;;;;;;0.7;0.6;;;;;;;32.46;34.80176;930.8156;;;;
2021/07/06 12:14:29;;;;;;;1.5;0.6;;;;;;;31.93;34.47266;930.7747;;;;
2021/07/06 12:17:03;;;;;;;0.8;0.6;;;;;;;32.22;34.51953;930.7957;;;;
2021/07/06 12:19:30;;;;;;;0.8;0.5;;;;;;;32.32;35.18652;930.8459;;;;
2021/07/06 12:21:55;;;;;;;0.8;0.7;;;;;;;32.22;33.5;930.796;;;;
2021/07/06 12:24:23;;;;;;;1.6;0.6;;;;;;;31.95;36.75195;930.8119;;;;
2021/07/06 12:26:46;;;;;;;0.7;0.6;;;;;;;31.62;34.4502;930.8442;;;;
2021/07/06 12:29:13;;;;;;;2.6;1.1;;;;;;;31.62;33.85156;930.9473;;;;
2021/07/06 12:31:38;;;;;;;2.5;0.7;;;;;;;30.98;35.72852;930.9855;;;;
2021/07/06 12:34:39;;;;;;;1.3;0.7;;;;;;;30.87;36.85547;930.998;;;;
2021/07/06 12:37:04;;;;;;;1.4;0.7;;;;;;;30.47;36.50098;930.905;;;;
2021/07/06 12:39:32;;;;;;;1.1;0.5;;;;;;;30.7;35.41992;930.8738;;;;
2021/07/06 12:41:57;;;;;;;1.9;0.6;;;;;;;31.08;37.76953;930.9012;;;;
2021/07/06 12:44:22;;;;;;;1.5;0.8;;;;;;;31.4;36.89844;930.9048;;;;
2021/07/06 12:46:47;;;;;;;0.6;0.6;;;;;;;31.59;36.44824;931.0361;;;;
2021/07/06 12:49:13;;;;;;;1.4;1;;;;;;;31.62;38.37695;931.0538;;;;
2021/07/06 12:51:38;;;;;;;1.3;0.6;;;;;;;31.77;38.05469;931.0541;;;;
2021/07/06 12:54:07;;;;;;;0.9;0.7;;;;;;;31.7;35.49805;931.0109;;;;
2021/07/06 12:56:32;;;;;;;0.8;0.8;;;;;;;31.72;35.00879;931.0266;;;;
2021/07/06 12:58:57;;;;;;;3;0.9;;;;;;;31.91;37.37109;931.0162;;;;
2021/07/06 13:01:22;;;;;;;1.7;0.9;;;;;;;31.94;37.87793;930.9589;;;;
2021/07/06 13:03:48;;;;;;;2.9;0.8;;;;;;;31.86;37.67871;930.9944;;;;
2021/07/06 13:06:13;;;;;;;1.3;0.9;;;;;;;31.99;38.80371;930.9688;;;;
2021/07/06 13:08:38;;;;;;;1;0.7;;;;;;;32.14;37.70215;930.957;;;;
2021/07/06 13:11:05;;;;;;;2;0.9;;;;;;;32.07;37.55273;931.0366;;;;
2021/07/06 13:16:31;;;;;;;0.8;0.8;;;;;;;31.5;38.71484;931.0662;;;;
2021/07/06 13:18:57;;;;;;;1.5;0.7;;;;;;;31.52;37.51855;931.1194;;;;
2021/07/06 13:21:54;;;;;;;1.9;0.9;;;;;;;31.56;40.08398;931.1083;;;;
2021/07/06 13:24:22;;;;;;;1.2;0.8;;;;;;;31.25;41.85059;931.2483;;;;
2021/07/06 13:26:47;;;;;;;1.6;0.9;;;;;;;30.66;43.43359;931.2473;;;;
2021/07/06 13:29:15;;;;;;;1;1;;;;;;;30.73;41.0752;931.291;;;;
2021/07/06 13:31:42;;;;;;;1.1;1;;;;;;;31.18;39.47754;931.2991;;;;
2021/07/06 13:34:07;;;;;;;1.4;1;;;;;;;31.42;37.03223;931.3317;;;;
2021/07/06 13:36:33;;;;;;;1.4;0.9;;;;;;;31.31;37.5498;931.4102;;;;
2021/07/06 13:38:58;;;;;;;3.7;1;;;;;;;31.11;37.80859;931.486;;;;
2021/07/06 13:41:25;;;;;;;1.1;0.9;;;;;;;31.04;36.48633;931.4612;;;;
2021/07/06 13:43:50;;;;;;;2.1;0.9;;;;;;;31.32;38.43555;931.4866;;;;
2021/07/06 13:46:17;;;;;;;2.3;0.9;;;;;;;31.34;41.7998;931.5551;;;;
2021/07/06 13:48:42;;;;;;;3.5;1;;;;;;;31.15;38.93555;931.6719;;;;
2021/07/06 13:51:09;;;;;;;1.1;1;;;;;;;30.82;41.19043;931.6799;;;;
2021/07/06 13:53:34;;;;;;;1.2;0.9;;;;;;;30.76;39.73926;931.6892;;;;
2021/07/06 13:56:02;;;;;;;3.1;1.1;;;;;;;31.05;39.83594;931.6867;;;;
2021/07/06 13:58:27;;;;;;;0.8;0.8;;;;;;;30.93;38.90527;931.7031;;;;
2021/07/06 14:00:56;;;;;;;2.3;0.9;;;;;;;31.2;40.98633;931.7394;;;;
2021/07/06 14:03:23;;;;;;;1.6;1;;;;;;;31.11;39.56641;931.8147;;;;
2021/07/06 14:05:49;;;;;;;0.8;0.8;;;;;;;30.85;41.94629;931.9238;;;;
2021/07/06 14:08:16;;;;;;;1.4;1;;;;;;;30.95;41.31055;931.8823;;;;
2021/07/06 14:10:41;;;;;;;1.1;0.9;;;;;;;30.75;41.18359;931.856;;;;
2021/07/06 14:13:08;;;;;;;1.3;0.9;;;;;;;30.23;44.34863;931.8118;;;;
2021/07/06 14:15:39;;;;;;;1.2;1;;;;;;;30.52;42.97852;931.8964;;;;
2021/07/06 14:18:04;;;;;;;0.9;0.9;;;;;;;30.55;40.90332;931.894;;;;
2021/07/06 14:20:30;;;;;;;1.7;1.2;;;;;;;30.65;41.8916;931.932;;;;
2021/07/06 14:22:55;;;;;;;3.5;1.1;;;;;;;30.76;44.01758;931.9642;;;;
2021/07/06 14:25:21;;;;;;;1.1;1;;;;;;;30.87;40.94336;931.9688;;;;
2021/07/06 14:27:46;;;;;;;2.4;1.2;;;;;;;30.66;40.38672;932.0167;;;;
2021/07/06 14:30:13;;;;;;;1.1;1;;;;;;;30.2;41.4209;932.0327;;;;
2021/07/06 14:32:38;;;;;;;1;0.9;;;;;;;30.19;42.375;932.157;;;;
2021/07/06 14:35:08;;;;;;;1.6;1.1;;;;;;;30.23;41.07617;932.1369;;;;
2021/07/06 14:37:36;;;;;;;2.4;1;;;;;;;30.43;42.6709;932.1204;;;;
2021/07/06 14:40:01;;;;;;;1.5;1.1;;;;;;;30.44;42.57715;932.1472;;;;
2021/07/06 14:42:27;;;;;;;1.4;1.3;;;;;;;30.11;43.5498;932.1652;;;;
2021/07/06 14:44:52;;;;;;;1.2;0.9;;;;;;;30.06;42.04102;932.1855;;;;
2021/07/06 14:50:48;;;;;;;1;0.9;;;;;;;29.94;42.36328;932.1994;;;;
2021/07/06 14:53:13;;;;;;;1.3;1.2;;;;;;;29.73;43.36914;932.2587;;;;
2021/07/06 14:55:39;;;;;;;1.2;1.1;;;;;;;29.79;43.74414;932.3409;;;;
2021/07/06 14:58:05;;;;;;;1.1;0.9;;;;;;;29.32;43.72266;932.3467;;;;
2021/07/06 15:00:31;;;;;;;1.4;1.1;;;;;;;29.05;44.64941;932.3111;;;;
2021/07/06 15:02:57;;;;;;;0.8;0.8;;;;;;;28.85;45.08105;932.3339;;;;
2021/07/06 15:05:22;;;;;;;1.8;1.3;;;;;;;28.77;45.97852;932.4056;;;;
2021/07/06 15:07:47;;;;;;;1.4;1.1;;;;;;;28.61;44.6416;932.3787;;;;
2021/07/06 15:10:15;;;;;;;1.4;1.1;;;;;;;28.5;45.61719;932.3363;;;;
2021/07/06 15:12:40;;;;;;;1.4;1.3;;;;;;;28.4;46.08203;932.3709;;;;
2021/07/06 15:15:07;;;;;;;1.4;1.2;;;;;;;28.31;45.43164;932.4817;;;;
2021/07/06 15:17:32;;;;;;;1.2;1.1;;;;;;;28.51;45.07129;932.5322;;;;
2021/07/06 15:19:59;;;;;;;1;1;;;;;;;28.58;45.07813;932.6233;;;;
2021/07/06 15:22:25;;;;;;;1.1;0.9;;;;;;;28.26;46.02051;932.7217;;;;
2021/07/06 15:24:53;;;;;;;1;1;;;;;;;27.76;46.58691;932.7199;;;;
2021/07/06 15:27:18;;;;;;;1.8;1;;;;;;;27.76;46.52832;932.7199;;;;
2021/07/06 15:29:47;;;;;;;1.3;1;;;;;;;27.95;46.30957;932.6877;;;;
2021/07/06 15:32:14;;;;;;;1.6;1.1;;;;;;;28.07;45.82324;932.7037;;;;
2021/07/06 15:34:41;;;;;;;1.1;1;;;;;;;28.13;46.6377;932.8127;;;;
2021/07/06 15:37:06;;;;;;;2.9;1.3;;;;;;;27.86;47;932.9174;;;;
2021/07/06 15:39:31;;;;;;;1.5;1.2;;;;;;;27.48;48.07617;932.967;;;;
2021/07/06 15:41:56;;;;;;;1.8;1.1;;;;;;;27.47;47.51758;932.9088;;;;
2021/07/06 15:44:24;;;;;;;1.9;1.2;;;;;;;27.43;48.4043;932.8928;;;;
2021/07/06 15:46:48;;;;;;;1.6;1.3;;;;;;;27.7;47.60156;932.9007;;;;
2021/07/06 15:49:15;;;;;;;2.2;1.3;;;;;;;27.57;48.67969;932.9794;;;;
2021/07/06 15:51:40;;;;;;;1.6;1.2;;;;;;;27.76;47.85645;933.0662;;;;
2021/07/06 15:54:06;;;;;;;1.1;1;;;;;;;27.83;47.77051;933.0386;;;;
2021/07/06 15:56:31;;;;;;;1.2;1;;;;;;;27.77;48.04883;933.0325;;;;